Time;durP1;ratioP1;P1;durP2;ratioP2;P2;SDS_P1;SDS_P2;PMS_P1;PMS_P2;Temp;Humidity;BMP_temperature;BMP_pressure;BME280_temperature;BME280_humidity;BME280_pressure;Samples;Min_cycle;Max_cycle;Signal;HPM_P1;HPM_P2
2021/03/16 00:03:35;;;;;;;8.67;3.63;;;;;;;2.89;69.36;100589.94;8726706;32;20438;-75
2021/03/16 00:08:51;;;;;;;11.97;3.57;;;;;;;2.85;69.59;100593.66;8721415;32;20441;-74
2021/03/16 00:13:56;;;;;;;11.60;3.10;;;;;;;2.70;69.91;100594.38;8718864;32;20982;-74
2021/03/16 00:18:59;;;;;;;12.40;3.43;;;;;;;2.76;69.67;100610.88;8722250;32;21105;-74
2021/03/16 00:24:01;;;;;;;15.37;2.90;;;;;;;2.82;69.63;100623.00;8723453;32;20438;-75
2021/03/16 00:29:04;;;;;;;8.40;2.73;;;;;;;2.64;70.36;100621.19;8717811;32;20957;-74
2021/03/16 00:34:07;;;;;;;9.00;3.27;;;;;;;2.67;70.77;100626.34;8718112;32;20525;-74
2021/03/16 00:39:09;;;;;;;8.90;2.77;;;;;;;2.63;70.58;100625.59;8718858;32;20518;-74
2021/03/16 00:44:11;;;;;;;15.70;3.30;;;;;;;2.70;70.13;100629.72;8718233;32;20399;-74
2021/03/16 00:49:14;;;;;;;12.43;3.27;;;;;;;2.69;70.12;100635.06;8718267;32;20138;-74
2021/03/16 00:54:16;;;;;;;13.27;4.23;;;;;;;2.55;70.31;100643.63;8673050;32;20151;-75
2021/03/16 00:59:19;;;;;;;14.07;3.33;;;;;;;2.44;70.78;100645.88;8653279;32;20416;-74
2021/03/16 01:04:22;;;;;;;9.97;2.83;;;;;;;2.61;70.03;100656.66;8653782;32;20127;-74
2021/03/16 01:09:24;;;;;;;16.23;3.30;;;;;;;2.33;70.82;100649.88;8655035;32;20848;-74
2021/03/16 01:14:26;;;;;;;11.33;3.33;;;;;;;2.02;71.27;100652.91;8653792;32;21755;-73
2021/03/16 01:19:30;;;;;;;11.17;2.93;;;;;;;2.17;71.22;100667.34;8658214;32;21237;-73
2021/03/16 01:24:32;;;;;;;11.10;2.97;;;;;;;2.20;71.41;100674.31;8662610;32;20415;-74
2021/03/16 01:29:34;;;;;;;7.10;2.77;;;;;;;2.30;71.00;100665.88;8664708;32;20412;-74
2021/03/16 01:34:37;;;;;;;10.57;3.10;;;;;;;2.22;71.44;100681.22;8659806;32;20418;-74
2021/03/16 01:39:39;;;;;;;12.23;2.60;;;;;;;2.06;72.06;100683.69;8657363;32;21139;-74
2021/03/16 01:44:43;;;;;;;15.73;4.37;;;;;;;1.85;72.56;100695.13;8655013;32;20268;-74
2021/03/16 01:49:46;;;;;;;13.83;3.57;;;;;;;1.55;73.03;100690.13;8656208;32;20241;-74
2021/03/16 01:54:50;;;;;;;10.57;3.67;;;;;;;1.77;73.04;100686.63;8632632;32;20225;-74
2021/03/16 01:59:52;;;;;;;13.87;3.77;;;;;;;1.54;74.40;100685.75;8719511;32;20644;-74
2021/03/16 02:05:15;;;;;;;11.70;3.60;;;;;;;1.99;72.88;100694.59;8722757;32;20425;-74
2021/03/16 02:10:55;;;;;;;8.83;3.50;;;;;;;1.89;72.86;100702.03;8728629;32;20173;-74
2021/03/16 02:16:21;;;;;;;18.43;3.90;;;;;;;1.75;73.32;100702.56;8730598;32;20661;-73
2021/03/16 02:21:44;;;;;;;10.10;3.30;;;;;;;1.85;72.83;100703.94;8721619;32;20236;-73
2021/03/16 02:27:14;;;;;;;10.40;3.20;;;;;;;1.66;74.00;100698.50;8721837;32;20193;-73
2021/03/16 02:32:40;;;;;;;9.80;3.10;;;;;;;1.56;73.30;100714.81;8730927;32;20193;-74
2021/03/16 02:38:04;;;;;;;13.77;4.03;;;;;;;1.45;74.59;100713.44;8739837;32;20449;-74
2021/03/16 02:43:26;;;;;;;15.07;3.83;;;;;;;1.47;74.14;100718.66;8737612;32;20165;-73
2021/03/16 02:48:49;;;;;;;11.47;3.07;;;;;;;1.55;74.43;100723.69;8724027;32;20141;-74
2021/03/16 02:54:11;;;;;;;13.53;3.73;;;;;;;1.35;74.75;100732.38;8734189;32;20393;-74
2021/03/16 02:59:34;;;;;;;9.50;3.70;;;;;;;1.50;74.52;100730.00;8736132;32;20419;-73
2021/03/16 03:04:57;;;;;;;12.27;3.43;;;;;;;1.75;74.10;100737.00;8736044;32;20185;-74
2021/03/16 03:10:18;;;;;;;8.50;3.83;;;;;;;1.48;74.31;100745.09;8737955;32;20401;-73
2021/03/16 03:15:39;;;;;;;10.23;3.73;;;;;;;1.64;73.78;100755.09;8736623;32;20912;-74
2021/03/16 03:21:12;;;;;;;9.03;3.40;;;;;;;1.63;73.68;100758.69;8733843;32;20185;-73
2021/03/16 03:26:42;;;;;;;13.30;3.63;;;;;;;1.46;73.89;100762.81;8734181;32;20236;-74
2021/03/16 03:32:06;;;;;;;17.10;3.90;;;;;;;1.51;74.72;100770.59;8733981;32;21037;-74
2021/03/16 03:37:31;;;;;;;12.63;4.33;;;;;;;1.52;74.64;100769.66;8735902;32;20402;-74
2021/03/16 03:42:55;;;;;;;14.47;3.93;;;;;;;1.32;75.72;100774.81;8733619;32;20402;-74
2021/03/16 03:48:17;;;;;;;12.10;3.80;;;;;;;1.57;74.65;100780.09;8733773;32;20592;-74
2021/03/16 03:53:41;;;;;;;14.13;3.87;;;;;;;1.40;74.46;100794.81;8738406;32;20185;-74
2021/03/16 03:59:05;;;;;;;11.93;3.70;;;;;;;1.60;74.25;100790.56;8689714;32;21043;-74
2021/03/16 04:04:29;;;;;;;14.67;4.17;;;;;;;1.58;74.19;100787.97;8676420;32;21010;-74
2021/03/16 04:09:50;;;;;;;6.43;3.53;;;;;;;1.85;73.92;100790.50;8680327;32;20122;-74
2021/03/16 04:15:15;;;;;;;14.00;3.80;;;;;;;1.72;74.02;100795.41;8680442;32;20417;-75
2021/03/16 04:20:36;;;;;;;10.07;4.27;;;;;;;2.06;73.12;100800.28;8679113;32;20429;-74
2021/03/16 04:25:58;;;;;;;12.43;4.50;;;;;;;1.94;74.03;100801.59;8680830;32;20455;-74
2021/03/16 04:31:19;;;;;;;15.10;3.70;;;;;;;1.97;74.02;100805.91;8686518;32;20456;-74
2021/03/16 04:36:39;;;;;;;10.03;3.97;;;;;;;2.19;73.61;100816.56;8685472;32;20706;-75
2021/03/16 04:42:01;;;;;;;12.80;3.60;;;;;;;1.87;74.48;100816.03;8686843;32;20174;-74
2021/03/16 04:47:22;;;;;;;11.27;3.40;;;;;;;1.85;74.68;100822.31;8682795;32;21140;-75
2021/03/16 04:52:43;;;;;;;17.67;4.90;;;;;;;2.05;74.83;100824.19;8684665;32;20523;-74
2021/03/16 04:58:05;;;;;;;13.07;3.77;;;;;;;2.21;73.43;100827.97;8682646;32;20583;-74
2021/03/16 05:03:25;;;;;;;12.17;3.53;;;;;;;2.08;73.30;100837.31;8684425;32;20332;-74
2021/03/16 05:08:46;;;;;;;10.47;3.53;;;;;;;2.07;73.34;100844.41;8675062;32;20158;-74
2021/03/16 05:14:08;;;;;;;17.67;3.83;;;;;;;2.22;72.89;100853.53;8669340;32;20397;-73
2021/03/16 05:19:29;;;;;;;10.97;3.67;;;;;;;2.37;72.73;100866.22;8678805;32;20450;-74
2021/03/16 05:24:50;;;;;;;17.23;4.73;;;;;;;2.37;72.78;100862.69;8679082;32;20318;-74
2021/03/16 05:30:13;;;;;;;16.83;4.27;;;;;;;2.57;71.86;100867.22;8679088;32;20658;-75
2021/03/16 05:35:35;;;;;;;13.70;3.87;;;;;;;2.54;71.43;100876.19;8681939;32;20186;-74
2021/03/16 05:40:56;;;;;;;6.63;3.40;;;;;;;2.83;70.60;100876.81;8678909;32;20181;-74
2021/03/16 05:46:18;;;;;;;8.93;3.40;;;;;;;2.91;70.67;100882.66;8668236;32;20404;-74
2021/03/16 05:51:39;;;;;;;13.40;4.10;;;;;;;2.98;70.12;100880.59;8663554;32;20409;-75
2021/03/16 05:57:01;;;;;;;11.07;3.20;;;;;;;2.92;70.26;100891.47;8662514;32;20834;-76
2021/03/16 06:02:22;;;;;;;11.35;3.17;;;;;;;3.04;69.55;100889.19;8662422;32;20131;-74
2021/03/16 06:07:49;;;;;;;9.53;3.10;;;;;;;2.93;69.93;100888.75;8671439;32;20407;-75
2021/03/16 06:13:13;;;;;;;8.00;3.72;;;;;;;2.77;70.56;100900.91;8676071;32;20154;-74
2021/03/16 06:18:42;;;;;;;12.38;2.72;;;;;;;3.05;69.63;100903.31;8675826;32;20185;-76
2021/03/16 06:24:04;;;;;;;13.93;4.80;;;;;;;3.11;69.87;100907.50;8677940;32;20411;-74
2021/03/16 06:29:25;;;;;;;13.63;5.30;;;;;;;3.22;69.60;100910.59;8680145;32;22467;-74
2021/03/16 06:34:59;;;;;;;8.23;3.63;;;;;;;3.28;69.25;100916.47;8674815;32;20142;-74
2021/03/16 06:40:28;;;;;;;7.65;3.08;;;;;;;3.35;68.95;100916.25;8674962;32;20269;-74
2021/03/16 06:45:52;;;;;;;17.90;4.10;;;;;;;2.98;69.41;100915.97;8666891;32;20534;-74
2021/03/16 06:51:15;;;;;;;8.45;3.47;;;;;;;3.46;68.50;100919.31;8658231;32;20395;-74
2021/03/16 06:56:36;;;;;;;6.88;3.10;;;;;;;3.26;69.14;100928.09;8660576;32;21895;-73
2021/03/16 07:01:57;;;;;;;8.48;2.75;;;;;;;3.48;68.26;100923.63;8657135;32;20455;-75
2021/03/16 07:07:21;;;;;;;10.18;3.33;;;;;;;3.57;68.34;100935.66;8655173;32;20138;-74
2021/03/16 07:12:44;;;;;;;12.10;3.90;;;;;;;3.70;67.63;100931.53;8654688;32;20420;-75
2021/03/16 07:18:06;;;;;;;8.38;3.58;;;;;;;3.79;67.91;100934.72;8660324;32;20573;-74
2021/03/16 07:23:29;;;;;;;11.32;3.75;;;;;;;4.11;66.89;100939.47;8654746;32;20158;-74
2021/03/16 07:28:51;;;;;;;13.68;3.63;;;;;;;3.90;68.07;100938.63;8661208;32;20500;-74
2021/03/16 07:34:13;;;;;;;11.25;3.33;;;;;;;4.39;67.76;100928.41;8653383;32;20690;-74
2021/03/16 07:39:35;;;;;;;11.48;3.03;;;;;;;5.09;65.56;100933.09;8655127;32;20417;-74
2021/03/16 07:44:56;;;;;;;12.95;3.63;;;;;;;5.10;67.13;100948.13;8662375;32;20406;-74
2021/03/16 07:50:27;;;;;;;8.43;2.50;;;;;;;4.59;68.03;100954.06;8662230;32;20421;-74
2021/03/16 07:55:48;;;;;;;9.05;3.55;;;;;;;5.57;67.71;100951.09;8657740;32;20189;-73
2021/03/16 08:01:10;;;;;;;9.82;3.22;;;;;;;6.06;65.18;100942.31;8654372;32;20155;-74
2021/03/16 08:06:33;;;;;;;6.43;2.30;;;;;;;6.23;62.94;100946.78;8654420;32;20414;-74
2021/03/16 08:11:55;;;;;;;6.32;2.38;;;;;;;6.67;62.11;100956.81;8656037;32;20126;-75
2021/03/16 08:17:26;;;;;;;8.15;2.65;;;;;;;6.33;62.81;100966.66;8657968;32;20405;-73
2021/03/16 08:22:47;;;;;;;11.05;2.92;;;;;;;6.18;63.31;100961.22;8658896;32;20852;-75
2021/03/16 08:28:12;;;;;;;6.90;2.60;;;;;;;5.72;64.16;100973.44;8655156;32;21333;-74
2021/03/16 08:33:32;;;;;;;8.52;2.50;;;;;;;4.90;65.26;100975.72;8652034;32;20142;-74
2021/03/16 08:38:54;;;;;;;6.82;2.90;;;;;;;5.95;63.17;100942.88;8654961;32;20269;-75
2021/03/16 08:44:17;;;;;;;8.55;3.08;;;;;;;6.37;61.11;100971.75;8711533;32;20776;-74
2021/03/16 08:49:41;;;;;;;10.82;2.83;;;;;;;7.12;58.04;100963.22;8712551;32;21242;-74
2021/03/16 08:55:02;;;;;;;9.07;2.90;;;;;;;6.42;60.52;100962.63;8684222;32;20138;-74
2021/03/16 09:00:26;;;;;;;5.55;1.90;;;;;;;6.51;57.62;100963.00;8652873;32;20405;-75
2021/03/16 09:05:47;;;;;;;8.10;2.60;;;;;;;7.40;55.78;100973.16;8650868;32;20400;-75
2021/03/16 09:11:08;;;;;;;5.45;2.50;;;;;;;6.62;56.09;100967.75;8653045;32;20860;-74
2021/03/16 09:16:30;;;;;;;7.15;1.88;;;;;;;6.81;57.55;100983.63;8654790;32;20432;-75
2021/03/16 09:21:54;;;;;;;4.85;2.30;;;;;;;5.59;62.05;100993.66;8657637;32;20595;-73
2021/03/16 09:27:15;;;;;;;12.65;2.85;;;;;;;5.85;60.15;100984.34;8657328;32;20552;-74
2021/03/16 09:32:38;;;;;;;8.32;3.30;;;;;;;6.16;59.46;100984.44;8657016;32;20364;-74
2021/03/16 09:37:59;;;;;;;4.35;1.98;;;;;;;6.70;58.97;100988.69;8657532;32;20394;-74
2021/03/16 09:43:36;;;;;;;5.70;2.33;;;;;;;6.73;57.65;100984.03;8649275;32;20464;-74
2021/03/16 09:48:47;;;;;;;3.78;2.28;;;;;;;6.86;58.70;101000.25;8636088;32;20170;-75
2021/03/16 09:53:51;;;;;;;13.07;2.78;;;;;;;7.92;56.11;101005.69;8661004;32;20412;-75
2021/03/16 09:58:58;;;;;;;4.65;2.20;;;;;;;8.05;56.58;100992.44;8679271;32;20535;-74
2021/03/16 10:04:03;;;;;;;8.10;2.30;;;;;;;7.13;56.11;100988.97;8702118;32;20469;-75
2021/03/16 10:09:15;;;;;;;8.43;2.13;;;;;;;7.36;56.33;100990.34;8681017;32;20180;-74
2021/03/16 10:14:25;;;;;;;4.65;2.30;;;;;;;7.48;55.78;100995.81;8710816;32;21255;-75
2021/03/16 10:19:28;;;;;;;13.05;3.25;;;;;;;7.92;53.73;100992.31;8706911;32;21787;-75
2021/03/16 10:24:30;;;;;;;5.32;2.28;;;;;;;8.23;52.33;100989.56;8702328;32;20442;-75
2021/03/16 10:29:37;;;;;;;4.88;2.67;;;;;;;7.79;54.34;100999.38;8707725;32;20145;-75
2021/03/16 10:34:41;;;;;;;10.18;2.53;;;;;;;7.44;54.08;101004.97;8708376;32;20515;-75
2021/03/16 10:39:43;;;;;;;5.40;1.95;;;;;;;7.68;52.74;101008.03;8711183;32;20153;-75
2021/03/16 10:44:45;;;;;;;6.40;2.25;;;;;;;8.59;53.35;101006.06;8715565;32;20650;-75
2021/03/16 10:49:48;;;;;;;6.43;2.20;;;;;;;8.47;50.58;101004.16;8717823;32;20554;-75
2021/03/16 10:54:51;;;;;;;7.90;2.13;;;;;;;8.29;50.51;100997.25;8695359;32;20433;-75
2021/03/16 10:59:53;;;;;;;6.10;2.17;;;;;;;9.90;48.08;100995.72;8752545;32;20702;-74
2021/03/16 11:04:56;;;;;;;5.30;2.47;;;;;;;8.90;49.74;100992.56;8692095;32;20460;-73
2021/03/16 11:09:58;;;;;;;3.50;1.67;;;;;;;9.14;48.76;100996.31;8681914;32;20910;-75
2021/03/16 11:15:00;;;;;;;3.83;1.85;;;;;;;10.15;45.28;100986.84;8678971;32;20439;-75
2021/03/16 11:20:05;;;;;;;3.45;1.73;;;;;;;13.16;41.02;100980.13;8680479;32;20159;-76
2021/03/16 11:25:11;;;;;;;4.13;1.77;;;;;;;13.44;39.31;100983.28;8681552;32;20659;-73
2021/03/16 11:30:15;;;;;;;6.13;2.30;;;;;;;11.49;41.30;100985.22;8775053;32;20733;-75
2021/03/16 11:35:18;;;;;;;2.30;1.67;;;;;;;13.02;40.33;100992.06;8852195;32;20187;-74
2021/03/16 11:40:39;;;;;;;6.68;3.08;;;;;;;11.93;40.62;100989.06;8865960;32;20221;-73
2021/03/16 11:46:00;;;;;;;5.05;1.83;;;;;;;11.42;41.48;100982.16;8911319;32;20595;-74
2021/03/16 11:51:22;;;;;;;5.43;1.75;;;;;;;8.55;47.04;100977.75;8919324;32;20718;-74
2021/03/16 11:56:43;;;;;;;4.68;2.08;;;;;;;7.94;53.40;101001.09;8969763;32;20307;-74
2021/03/16 12:02:04;;;;;;;7.72;2.22;;;;;;;7.17;57.61;101011.91;8983079;32;20311;-74
2021/03/16 12:07:27;;;;;;;8.13;2.42;;;;;;;7.09;57.73;101011.47;8984410;32;20216;-74
2021/03/16 12:12:47;;;;;;;4.10;1.60;;;;;;;7.75;57.52;101008.50;8979185;32;20224;-74
2021/03/16 12:18:08;;;;;;;2.10;1.45;;;;;;;9.31;54.81;101003.25;8980008;32;20221;-74
2021/03/16 12:23:31;;;;;;;4.05;1.40;;;;;;;12.29;45.75;100987.22;8951395;32;20228;-74
2021/03/16 12:28:51;;;;;;;2.83;1.50;;;;;;;13.68;40.29;100975.78;8977296;32;20228;-73
2021/03/16 12:34:12;;;;;;;3.05;1.50;;;;;;;14.68;39.66;100986.09;8951891;32;20228;-74
2021/03/16 12:39:35;;;;;;;3.50;1.50;;;;;;;14.32;39.73;100977.50;8977967;32;20622;-74
2021/03/16 12:44:56;;;;;;;3.95;1.70;;;;;;;15.18;37.32;100975.25;8976518;32;20220;-74
2021/03/16 12:50:17;;;;;;;2.50;1.70;;;;;;;15.00;39.22;100968.81;8977282;32;21423;-76
2021/03/16 12:55:40;;;;;;;3.05;1.40;;;;;;;16.04;36.27;100959.13;8979728;32;20233;-75
2021/03/16 13:01:01;;;;;;;2.53;1.40;;;;;;;14.38;39.34;100965.28;8983858;32;20237;-75
2021/03/16 13:06:21;;;;;;;3.15;1.30;;;;;;;12.74;41.44;100968.34;8975562;32;20224;-74
2021/03/16 13:11:43;;;;;;;1.48;1.30;;;;;;;10.05;46.97;100976.84;8975330;32;20220;-74
2021/03/16 13:17:04;;;;;;;2.65;1.30;;;;;;;8.94;50.85;100978.88;8975409;32;20995;-74
2021/03/16 13:22:25;;;;;;;3.65;1.40;;;;;;;8.53;54.67;100977.00;8974881;32;20216;-74
2021/03/16 13:27:46;;;;;;;3.90;1.65;;;;;;;8.96;53.69;100979.59;8975414;32;20246;-74
2021/03/16 13:33:07;;;;;;;2.67;1.60;;;;;;;9.50;51.62;100970.72;8975507;32;20225;-74
2021/03/16 13:38:29;;;;;;;4.50;1.25;;;;;;;10.13;47.77;100956.53;8982188;32;20229;-73
2021/03/16 13:43:51;;;;;;;2.10;1.95;;;;;;;12.52;43.46;100961.97;8975161;32;20221;-75
2021/03/16 13:49:12;;;;;;;4.97;1.73;;;;;;;13.78;38.68;100950.72;8975109;32;21459;-75
2021/03/16 13:54:33;;;;;;;4.43;1.90;;;;;;;10.80;42.88;100955.38;8974510;32;20327;-74
2021/03/16 13:59:55;;;;;;;1.77;1.40;;;;;;;14.81;36.26;100937.19;8974833;32;20220;-74
2021/03/16 14:05:15;;;;;;;3.72;1.90;;;;;;;16.29;33.62;100943.25;8977110;32;20256;-75
2021/03/16 14:10:36;;;;;;;4.97;1.45;;;;;;;12.43;43.72;100954.63;8975310;32;20220;-74
2021/03/16 14:15:58;;;;;;;4.18;1.92;;;;;;;10.13;57.86;100969.97;8974051;32;20228;-74
2021/03/16 14:21:19;;;;;;;7.32;2.65;;;;;;;8.12;68.33;100968.84;8975976;32;20220;-74
2021/03/16 14:26:40;;;;;;;6.57;2.40;;;;;;;7.87;70.37;100975.69;8973482;32;20224;-73
2021/03/16 14:32:01;;;;;;;9.10;2.80;;;;;;;7.98;67.83;100969.69;8973156;32;20224;-73
2021/03/16 14:37:23;;;;;;;6.18;2.10;;;;;;;7.04;63.49;100968.97;8973690;32;20228;-73
2021/03/16 14:42:45;;;;;;;6.05;2.00;;;;;;;9.91;58.37;100957.19;8972867;32;20221;-73
2021/03/16 14:48:08;;;;;;;2.25;2.05;;;;;;;10.04;53.90;100949.16;8972958;32;20894;-74
2021/03/16 14:53:29;;;;;;;3.83;2.05;;;;;;;12.25;47.44;100954.22;8973454;32;20229;-74
2021/03/16 14:58:51;;;;;;;4.85;2.10;;;;;;;13.10;48.12;100950.13;8980632;32;20268;-74
2021/03/16 15:04:13;;;;;;;5.32;2.10;;;;;;;15.34;41.70;100946.78;8972752;32;20236;-75
2021/03/16 15:09:49;;;;;;;2.58;1.50;;;;;;;12.25;43.52;100948.84;8973034;32;20263;-75
2021/03/16 15:15:11;;;;;;;2.38;1.60;;;;;;;12.28;46.37;100937.84;8972737;32;20788;-75
2021/03/16 15:20:32;;;;;;;3.75;1.90;;;;;;;11.74;45.48;100949.25;8972814;32;20239;-76
2021/03/16 15:25:54;;;;;;;6.85;2.00;;;;;;;10.70;44.94;100943.59;8972610;32;20228;-75
2021/03/16 15:31:15;;;;;;;3.97;1.73;;;;;;;10.39;47.39;100935.03;8972249;32;20220;-75
2021/03/16 15:36:38;;;;;;;4.93;1.80;;;;;;;9.87;48.04;100938.72;8972140;32;20232;-75
2021/03/16 15:41:59;;;;;;;2.33;1.50;;;;;;;9.56;51.75;100942.63;8976873;32;21573;-74
2021/03/16 15:47:21;;;;;;;6.10;1.90;;;;;;;8.88;54.82;100946.22;8972162;32;20228;-74
2021/03/16 15:52:43;;;;;;;4.45;1.90;;;;;;;8.63;56.53;100944.28;8971689;32;20228;-75
2021/03/16 15:58:04;;;;;;;4.63;2.00;;;;;;;8.95;56.58;100952.94;8972015;32;20323;-74
2021/03/16 16:03:25;;;;;;;4.80;2.10;;;;;;;9.24;51.36;100949.19;8976180;32;20232;-74
2021/03/16 16:08:47;;;;;;;6.70;3.38;;;;;;;10.17;46.95;100951.81;8983549;32;21487;-74
2021/03/16 16:14:08;;;;;;;8.20;3.13;;;;;;;10.34;47.03;100954.19;8984628;32;20323;-75
2021/03/16 16:19:30;;;;;;;8.25;3.28;;;;;;;9.41;48.45;100961.47;8981785;32;20220;-73
2021/03/16 16:24:52;;;;;;;7.78;2.47;;;;;;;8.16;50.91;100960.53;8976536;32;20228;-74
2021/03/16 16:30:14;;;;;;;3.65;2.38;;;;;;;7.97;51.42;100949.22;8981599;32;20701;-73
2021/03/16 16:35:36;;;;;;;4.65;1.98;;;;;;;7.66;52.27;100953.78;8983068;32;20229;-74
2021/03/16 16:41:08;;;;;;;4.10;2.10;;;;;;;7.04;53.19;100952.97;8976706;32;20732;-73
2021/03/16 16:46:28;;;;;;;6.10;2.33;;;;;;;6.80;53.35;100958.72;8975950;32;20228;-74
2021/03/16 16:51:49;;;;;;;1.90;1.70;;;;;;;6.71;52.11;100964.56;8976073;32;20220;-74
2021/03/16 16:57:11;;;;;;;9.52;3.28;;;;;;;6.90;53.40;100967.09;8975371;32;20228;-74
2021/03/16 17:02:32;;;;;;;4.10;2.10;;;;;;;6.67;53.79;100972.84;8975404;32;20212;-74
2021/03/16 17:07:53;;;;;;;7.50;2.47;;;;;;;6.36;54.30;100971.81;8975667;32;20745;-75
2021/03/16 17:13:17;;;;;;;4.85;2.30;;;;;;;6.38;55.08;100977.94;8974504;32;20225;-74
2021/03/16 17:18:38;;;;;;;8.40;2.20;;;;;;;6.14;55.02;100982.78;8975440;32;20225;-74
2021/03/16 17:23:59;;;;;;;6.65;2.20;;;;;;;5.97;55.94;100986.34;8975537;32;20716;-74
2021/03/16 17:29:22;;;;;;;7.45;2.55;;;;;;;5.82;55.98;100995.16;8975304;32;20277;-75
2021/03/16 17:34:43;;;;;;;4.95;2.13;;;;;;;5.65;56.45;100996.88;8975055;32;20221;-75
2021/03/16 17:40:06;;;;;;;2.60;1.80;;;;;;;5.56;57.16;101000.00;8975443;32;20225;-73
2021/03/16 17:45:27;;;;;;;2.25;1.73;;;;;;;5.45;57.00;100995.19;8976921;32;20224;-74
2021/03/16 17:50:54;;;;;;;7.57;3.47;;;;;;;5.37;57.10;101002.72;8985181;32;20220;-75
2021/03/16 17:56:14;;;;;;;6.93;4.90;;;;;;;5.26;57.29;101003.25;8974457;32;22031;-74
2021/03/16 18:01:36;;;;;;;7.47;4.60;;;;;;;5.17;57.26;101005.50;8974698;32;20374;-74
2021/03/16 18:06:57;;;;;;;6.78;2.00;;;;;;;4.79;56.71;101008.16;8974083;32;20638;-74
2021/03/16 18:12:33;;;;;;;7.78;3.38;;;;;;;4.80;57.01;101013.44;8876974;32;20906;-74
2021/03/16 18:17:55;;;;;;;6.75;2.88;;;;;;;4.76;56.42;101005.66;8749414;32;20133;-74
2021/03/16 18:23:16;;;;;;;6.85;3.45;;;;;;;4.74;56.54;101011.03;8721163;32;20495;-74
2021/03/16 18:28:37;;;;;;;8.48;2.95;;;;;;;4.64;57.04;101003.56;8715007;32;20393;-74
2021/03/16 18:33:59;;;;;;;5.55;2.67;;;;;;;4.55;57.83;101013.72;8713003;32;20467;-73
2021/03/16 18:39:20;;;;;;;5.30;2.78;;;;;;;4.44;58.13;101007.13;8712848;32;20423;-74
2021/03/16 18:44:41;;;;;;;6.07;3.30;;;;;;;4.35;58.78;101000.44;8694147;32;20773;-74
2021/03/16 18:50:04;;;;;;;7.93;3.00;;;;;;;4.25;58.46;101005.31;8703974;32;20685;-75
2021/03/16 18:55:25;;;;;;;3.58;2.95;;;;;;;4.18;58.65;101003.84;8708168;32;20423;-74
2021/03/16 19:00:49;;;;;;;4.90;2.70;;;;;;;4.15;58.26;101011.97;8708955;32;20441;-73
2021/03/16 19:06:11;;;;;;;6.93;2.92;;;;;;;4.08;58.57;101022.00;8710157;32;20405;-74
2021/03/16 19:11:32;;;;;;;6.20;2.80;;;;;;;4.08;58.46;101021.13;8708931;32;20397;-73
2021/03/16 19:16:53;;;;;;;8.77;2.90;;;;;;;4.04;58.82;101019.56;8681279;32;20177;-74
2021/03/16 19:22:15;;;;;;;6.72;3.17;;;;;;;4.06;58.51;101023.00;8975033;32;20220;-73
2021/03/16 19:27:36;;;;;;;10.23;3.25;;;;;;;3.88;59.04;101027.31;8972473;32;20224;-74
2021/03/16 19:32:58;;;;;;;5.32;2.80;;;;;;;3.57;59.95;101020.66;8977752;32;20262;-75
2021/03/16 19:38:20;;;;;;;3.60;2.73;;;;;;;3.46;60.44;101018.44;8978402;32;20228;-74
2021/03/16 19:43:41;;;;;;;6.07;3.05;;;;;;;3.42;60.25;101027.44;8980989;32;20216;-73
2021/03/16 19:49:02;;;;;;;4.97;2.97;;;;;;;3.18;60.97;101028.44;8979078;32;20217;-74
2021/03/16 19:54:24;;;;;;;7.60;3.20;;;;;;;3.15;60.74;101028.56;8979230;32;20233;-74
2021/03/16 19:59:45;;;;;;;7.17;3.17;;;;;;;3.34;59.83;101029.56;8980496;32;20744;-74
2021/03/16 20:05:08;;;;;;;4.67;2.90;;;;;;;3.40;59.28;101033.75;8983774;32;20299;-73
2021/03/16 20:10:30;;;;;;;6.13;3.00;;;;;;;3.42;59.05;101039.88;8980627;32;20228;-75
2021/03/16 20:15:55;;;;;;;7.65;3.17;;;;;;;3.42;58.58;101039.88;8978502;32;20789;-74
2021/03/16 20:21:16;;;;;;;4.18;3.20;;;;;;;3.35;58.42;101035.75;8978305;32;20224;-73
2021/03/16 20:26:39;;;;;;;7.03;3.03;;;;;;;3.27;58.28;101036.91;8977381;32;20639;-74
2021/03/16 20:32:00;;;;;;;6.33;2.97;;;;;;;3.10;58.85;101039.41;8978508;32;20240;-75
2021/03/16 20:37:21;;;;;;;8.33;2.97;;;;;;;3.06;58.80;101049.25;8978585;32;20810;-73
2021/03/16 20:42:43;;;;;;;11.77;5.63;;;;;;;3.00;59.03;101045.97;8977438;32;20220;-75
2021/03/16 20:48:05;;;;;;;5.57;3.43;;;;;;;2.90;59.26;101047.25;8976849;32;20212;-73
2021/03/16 20:53:26;;;;;;;4.57;2.97;;;;;;;2.82;59.59;101055.50;8977920;32;20619;-75
2021/03/16 20:58:47;;;;;;;4.83;3.63;;;;;;;2.68;59.91;101066.63;8977029;32;20228;-75
2021/03/16 21:04:09;;;;;;;8.60;3.80;;;;;;;2.65;60.45;101071.19;8978405;32;20228;-74
2021/03/16 21:09:30;;;;;;;7.63;3.80;;;;;;;2.68;60.73;101073.72;8979263;32;20212;-72
2021/03/16 21:21:56;;;;;;;5.47;3.30;;;;;;;2.60;61.12;101080.19;8915811;32;20229;-73
2021/03/16 21:27:16;;;;;;;6.23;3.37;;;;;;;2.48;61.32;101090.34;8915018;32;20998;-73
2021/03/16 21:32:39;;;;;;;8.43;3.63;;;;;;;2.49;61.53;101089.41;8915864;32;20660;-73
2021/03/16 21:38:01;;;;;;;12.80;4.37;;;;;;;2.64;61.58;101101.31;8915685;32;20233;-72
2021/03/16 21:43:22;;;;;;;8.20;4.60;;;;;;;2.79;61.64;101096.28;8915116;32;20233;-73
2021/03/16 21:48:43;;;;;;;18.87;8.00;;;;;;;2.93;61.72;101090.44;8915152;32;20639;-73
2021/03/16 21:54:05;;;;;;;15.63;6.43;;;;;;;3.02;61.47;101090.13;8914835;32;20257;-73
2021/03/16 21:59:26;;;;;;;20.20;9.97;;;;;;;2.98;61.52;101088.50;8914496;32;20221;-73
2021/03/16 22:04:47;;;;;;;18.77;8.33;;;;;;;2.83;61.64;101100.56;8915899;32;20758;-75
2021/03/16 22:10:12;;;;;;;18.50;7.80;;;;;;;2.63;62.35;101102.22;8921871;32;20228;-73
2021/03/16 22:15:33;;;;;;;16.80;5.13;;;;;;;2.57;62.72;101093.56;8928409;32;20741;-73
2021/03/16 22:20:53;;;;;;;12.87;5.00;;;;;;;2.58;62.75;101091.78;8918189;32;20264;-72
2021/03/16 22:26:15;;;;;;;14.27;4.57;;;;;;;2.34;63.05;101098.81;8917141;32;20225;-73
2021/03/16 22:31:36;;;;;;;10.43;4.40;;;;;;;2.22;63.90;101113.34;8916921;32;20300;-75
2021/03/16 22:36:58;;;;;;;9.10;4.83;;;;;;;2.16;64.02;101106.47;8913721;32;20236;-73
2021/03/16 22:42:20;;;;;;;8.20;4.27;;;;;;;2.24;64.13;101111.50;8913582;32;20844;-73
2021/03/16 22:47:41;;;;;;;10.93;4.13;;;;;;;1.88;64.71;101110.97;8913889;32;20280;-73
2021/03/16 22:53:03;;;;;;;8.07;4.57;;;;;;;1.58;66.01;101119.00;8913101;32;21548;-73
2021/03/16 22:58:25;;;;;;;8.00;4.30;;;;;;;1.80;65.64;101123.63;8913794;32;20253;-73
2021/03/16 23:03:45;;;;;;;13.10;4.30;;;;;;;2.22;64.84;101112.47;8913850;32;20628;-73
2021/03/16 23:09:09;;;;;;;7.33;3.93;;;;;;;2.53;64.22;101099.91;8914329;32;20997;-72
2021/03/16 23:14:31;;;;;;;6.60;3.87;;;;;;;2.58;63.93;101111.22;8919042;32;20221;-73
2021/03/16 23:19:51;;;;;;;10.07;3.90;;;;;;;2.24;64.73;101122.09;8918913;32;20225;-74
2021/03/16 23:25:18;;;;;;;8.33;4.00;;;;;;;2.21;65.00;101113.41;8918633;32;20233;-72
2021/03/16 23:30:43;;;;;;;6.10;3.87;;;;;;;2.42;64.44;101111.78;8978807;32;20236;-73
2021/03/16 23:36:05;;;;;;;7.83;3.93;;;;;;;2.46;63.49;101100.16;8978900;32;20229;-73
2021/03/16 23:41:26;;;;;;;8.77;4.27;;;;;;;2.18;64.75;101103.78;8978802;32;20297;-73
2021/03/16 23:46:48;;;;;;;7.60;4.67;;;;;;;2.40;64.16;101090.63;8980574;32;20228;-73
2021/03/16 23:52:09;;;;;;;8.53;4.23;;;;;;;2.51;63.67;101096.41;8978913;32;20232;-73
2021/03/16 23:57:30;;;;;;;8.23;4.30;;;;;;;2.48;63.60;101093.88;8920105;32;20229;-73
